ニューヨーク/JFK の空港の天気 - METARとTAF

ジョン・F・ケネディ国際空港 ( KJFK / JFK ) - アメリカ ニューヨーク州ニューヨーク
飛行場実況気象(Metar)
観測時間12/09 22:04 EST (12/10 03:04 UTC)
風向・風速南西 5m/s
視程10km以上
天気現象弱い雨
全天の4割程度の雲 雲底高度 120m
全天を覆う雲 雲底高度 490m
気温11.1℃
湿度100%
気圧1008hPa
METARKJFK 100304Z 22009KT 8SM -RA SCT004 OVC016 11/11 A2978 RMK AO2 P0000 T01110111 $
過去の天気等 Google飛行場航空写真 Wunderground天気予報

過去48時間のMETAR

飛行場予報(TAF)
発表時間: 12/09 21:32 EST (12/10 02:32 UTC)
予報対象時間: 9日22時 EST ~ 11日1時 EST
風向・風速南南西 9m/s 瞬間風速 13m/s
視程10km以上
天気現象弱い雨 もや
全天の8割程度の雲 雲底高度 150m
全天を覆う雲 雲底高度 610m
10日0時 EST から
風向・風速南西 9m/s 瞬間風速 13m/s
視程8050m
天気現象もや
全天を覆う雲 雲底高度 150m
10日8時 EST から
風向・風速南西 7m/s
視程8050m
天気現象もや 周辺でしゅう雨
全天を覆う雲 雲底高度 240m
10日13時 EST から
風向・風速西南西 6m/s
視程8050m
天気現象弱い雨
全天を覆う雲 雲底高度 760m
10日16時 EST から
風向・風速西 6m/s 瞬間風速 11m/s
視程8050m
天気現象弱い雨 もや
全天を覆う雲 雲底高度 760m
10日21時 EST から
風向・風速北西 6m/s
視程8050m
天気現象弱い雨 もや
全天を覆う雲 雲底高度 760m
KJFK 100232Z 1003/1106 21017G25KT 6SM -RA BR BKN005 OVC020 WS020/21050KT
FM100500 22017G25KT 5SM BR OVC005 WS020/23045KT
FM101300 22013KT 5SM BR VCSH OVC008
FM101800 25011KT 5SM -RA OVC025
FM102100 28011G21KT 5SM -RA BR OVC025
FM110200 32012KT 5SM -RA BR OVC025